Terminal Aerodrome Forecast
Issued by NWS Tulsa, OK

Home | Current Version | Previous Version | Text Only | Print | Product List | Glossary On
Versions: 1 2 3 4 5 6 7 8 9 10 11 12 13 14 15 16 17 18 19
000
FTUS44 KTSA 261700
TAFFSM
TAF
KFSM 261720Z 2618/2718 06010KT P6SM SKC
     FM262000 08012KT P6SM SCT035
     FM270000 10012KT P6SM OVC035 PROB30 2706/2712 -TSRA BKN025CB
     FM271200 08014KT 5SM -TSRA BR OVC035CB=

USA.gov is the U.S. government's official web portal to all federal, state and local government web resources and services.